This is the latest recevied weather packets stored in our database for station/object OM6ABF-11. If no packets are shown the sender has not sent any weather packets the latest 10 day(s).
| Time | Temp. | Humidity | Pressure | Rain* | Wind** | Luminosity | Snow |
|---|---|---|---|---|---|---|---|
| 1777699861 | 8.33° C | 60% | 1027.2 hPa | - | - | - | - |
| 1777698961 | 6.11° C | 65% | 1027.3 hPa | - | - | - | - |
| 1777698062 | 6.67° C | 62% | 1027.2 hPa | - | - | - | - |
| 1777696263 | 3.89° C | 77% | 1027.2 hPa | - | - | - | - |
| 1777695363 | 2.22° C | 84% | 1027.3 hPa | - | - | - | - |
| 1777694463 | 1.11° C | 87% | 1027.2 hPa | - | - | - | - |
| 1777693562 | -0.56° C | 88% | 1027.2 hPa | - | - | - | - |
| 1777692663 | -1.11° C | 88% | 1027.1 hPa | - | - | - | - |
| 1777691764 | -1.11° C | 88% | 1027 hPa | - | - | - | - |
| 1777690864 | -1.11° C | 88% | 1027 hPa | - | - | - | - |
| 1777689965 | -0.56° C | 88% | 1026.9 hPa | - | - | - | - |
| 1777689066 | -1.11° C | 88% | 1027 hPa | - | - | - | - |
| 1777688167 | -0.56° C | 87% | 1027 hPa | - | - | - | - |
| 1777687268 | -0.56° C | 87% | 1026.9 hPa | - | - | - | - |
| 1777686370 | 0° C | 86% | 1027 hPa | - | - | - | - |
| 1777685472 | 0° C | 87% | 1027 hPa | - | - | - | - |
| 1777684572 | 0° C | 86% | 1027.1 hPa | - | - | - | - |
| 1777683671 | 0.56° C | 86% | 1027.1 hPa | - | - | - | - |
| 1777682772 | 0.56° C | 85% | 1027.1 hPa | - | - | - | - |
| 1777681873 | 1.11° C | 85% | 1027.3 hPa | - | - | - | - |
| 1777680973 | 1.11° C | 84% | 1027.1 hPa | - | - | - | - |
| 1777680073 | 1.11° C | 83% | 1027.1 hPa | - | - | - | - |
| 1777679174 | 1.67° C | 83% | 1027 hPa | - | - | - | - |
| 1777678275 | 2.22° C | 82% | 1027 hPa | - | - | - | - |
| 1777677374 | 2.78° C | 81% | 1027.1 hPa | - | - | - | - |
* Rain since midnight (hover to see other rain measurements)
** Current wind speed in m/s (hover to see current wind gust speed)